Time;durP1;ratioP1;P1;durP2;ratioP2;P2;SDS_P1;SDS_P2;PMS_P1;PMS_P2;Temp;Humidity;BMP_temperature;BMP_pressure;BME280_temperature;BME280_humidity;BME280_pressure;Samples;Min_cycle;Max_cycle;Signal;HPM_P1;HPM_P2
2022/11/16 00:02:08;;;;;;;16.52;8.48;;;;;;;8.42;100.00;95450.50;5032784;28;20049;-69
2022/11/16 00:04:34;;;;;;;13.98;8.85;;;;;;;8.32;100.00;95445.78;5041153;28;20504;-67
2022/11/16 00:07:01;;;;;;;12.73;8.18;;;;;;;8.24;100.00;95447.66;5044408;28;20037;-64
2022/11/16 00:09:28;;;;;;;14.07;9.02;;;;;;;8.19;100.00;95445.34;5028547;28;20052;-65
2022/11/16 00:11:56;;;;;;;12.10;8.07;;;;;;;8.14;100.00;95453.88;5040940;28;20045;-64
2022/11/16 00:14:24;;;;;;;12.82;8.38;;;;;;;8.14;100.00;95442.16;5035366;28;21882;-66
2022/11/16 00:16:49;;;;;;;11.93;8.43;;;;;;;8.22;100.00;95443.78;5021451;28;20033;-66
2022/11/16 00:19:15;;;;;;;15.10;9.05;;;;;;;8.13;100.00;95456.97;5033321;28;20090;-67
2022/11/16 00:21:41;;;;;;;12.93;9.18;;;;;;;8.23;100.00;95448.84;5038931;28;20041;-66
2022/11/16 00:24:06;;;;;;;14.30;8.98;;;;;;;8.28;100.00;95446.91;5035329;28;22063;-67
2022/11/16 00:26:32;;;;;;;12.55;8.80;;;;;;;8.10;100.00;95444.09;5040984;28;20033;-67
2022/11/16 00:28:57;;;;;;;15.40;9.25;;;;;;;8.00;100.00;95440.94;5039006;28;20045;-67
2022/11/16 00:31:23;;;;;;;14.95;9.13;;;;;;;7.95;100.00;95435.81;5033797;28;20048;-67
2022/11/16 00:33:50;;;;;;;14.27;8.93;;;;;;;7.96;100.00;95423.78;5036942;28;20527;-69
2022/11/16 00:36:16;;;;;;;13.80;9.35;;;;;;;7.88;100.00;95422.16;5036992;28;20122;-68
2022/11/16 00:38:42;;;;;;;14.73;9.00;;;;;;;7.80;100.00;95407.69;5054926;28;20045;-68
2022/11/16 00:41:08;;;;;;;14.38;9.32;;;;;;;7.79;100.00;95403.41;5036855;28;20890;-68
2022/11/16 00:43:35;;;;;;;18.05;9.63;;;;;;;7.85;100.00;95418.25;5052898;28;20095;-69
2022/11/16 00:46:01;;;;;;;14.48;9.05;;;;;;;7.99;100.00;95423.00;5041708;28;20028;-68
2022/11/16 00:48:26;;;;;;;14.25;9.55;;;;;;;8.02;100.00;95416.00;5053278;28;20044;-69
2022/11/16 00:50:52;;;;;;;12.93;8.57;;;;;;;8.08;100.00;95424.59;5041941;28;20131;-68
2022/11/16 00:53:19;;;;;;;11.57;8.55;;;;;;;8.10;100.00;95433.19;5026643;28;20064;-69
2022/11/16 00:55:45;;;;;;;13.05;8.38;;;;;;;8.24;100.00;95436.75;5040687;28;20103;-67
2022/11/16 00:58:11;;;;;;;14.98;9.05;;;;;;;8.08;100.00;95441.75;5039115;28;20052;-67
2022/11/16 01:00:36;;;;;;;12.98;8.77;;;;;;;8.00;100.00;95445.59;5040549;28;20106;-68
2022/11/16 01:03:03;;;;;;;13.77;8.60;;;;;;;8.09;100.00;95448.78;5021882;28;20046;-69
2022/11/16 01:05:29;;;;;;;12.95;9.20;;;;;;;7.92;100.00;95447.47;5033686;28;20045;-69
2022/11/16 01:07:55;;;;;;;19.80;10.63;;;;;;;7.79;100.00;95444.28;5039668;28;20041;-68
2022/11/16 01:10:22;;;;;;;15.25;10.13;;;;;;;7.74;100.00;95447.38;5034199;28;20103;-68
2022/11/16 01:12:49;;;;;;;17.10;11.02;;;;;;;7.72;100.00;95454.38;5038333;28;20398;-68
2022/11/16 01:15:17;;;;;;;14.55;10.30;;;;;;;7.68;100.00;95443.44;5016559;28;20067;-68
2022/11/16 01:17:43;;;;;;;16.52;10.65;;;;;;;7.65;100.00;95453.16;5039049;28;20397;-68
2022/11/16 01:20:12;;;;;;;15.23;10.13;;;;;;;7.71;100.00;95461.75;5033339;28;20045;-68
2022/11/16 01:22:39;;;;;;;15.20;10.70;;;;;;;7.73;100.00;95455.94;5041662;28;20041;-68
2022/11/16 01:25:06;;;;;;;17.88;10.38;;;;;;;7.78;100.00;95461.81;5039886;28;20060;-69
2022/11/16 01:27:31;;;;;;;14.20;9.57;;;;;;;7.87;100.00;95455.25;5042956;28;20040;-67
2022/11/16 01:29:57;;;;;;;13.05;9.43;;;;;;;7.92;100.00;95452.16;5046395;28;20522;-66
2022/11/16 01:32:23;;;;;;;16.67;9.70;;;;;;;7.96;100.00;95452.97;5039821;28;20575;-68
2022/11/16 01:34:49;;;;;;;14.15;10.00;;;;;;;7.99;100.00;95458.44;5039787;28;20044;-68
2022/11/16 01:37:15;;;;;;;13.82;9.45;;;;;;;8.00;100.00;95451.84;5034137;28;20119;-67
2022/11/16 01:39:41;;;;;;;15.40;9.65;;;;;;;7.97;100.00;95451.81;5046349;28;20052;-66
2022/11/16 01:42:06;;;;;;;12.50;9.45;;;;;;;7.84;100.00;95454.84;5033470;28;20051;-66
2022/11/16 01:44:31;;;;;;;14.57;9.93;;;;;;;7.78;100.00;95455.59;5039886;28;20088;-65
2022/11/16 01:47:10;;;;;;;14.80;10.35;;;;;;;7.88;100.00;95451.38;5050400;28;20048;-68
2022/11/16 01:49:39;;;;;;;13.68;9.68;;;;;;;7.97;100.00;95452.59;5054191;28;20488;-66
2022/11/16 01:52:13;;;;;;;14.52;9.70;;;;;;;7.99;100.00;95454.94;5016824;28;20045;-68
2022/11/16 01:54:42;;;;;;;14.07;9.98;;;;;;;8.00;100.00;95460.00;5038745;28;20037;-67
2022/11/16 01:57:13;;;;;;;16.60;9.82;;;;;;;7.95;100.00;95460.38;5031786;28;20044;-68
2022/11/16 01:59:39;;;;;;;14.73;9.85;;;;;;;7.84;100.00;95467.69;5040478;28;20080;-66
2022/11/16 02:02:05;;;;;;;15.35;10.20;;;;;;;7.84;100.00;95475.88;5038626;28;20575;-68
2022/11/16 02:04:31;;;;;;;15.63;10.38;;;;;;;7.92;100.00;95477.47;5043142;28;20045;-67
2022/11/16 02:07:14;;;;;;;16.42;11.05;;;;;;;7.85;100.00;95486.41;5025423;28;20041;-67
2022/11/16 02:10:11;;;;;;;17.23;11.93;;;;;;;7.68;100.00;95497.94;5043273;28;20191;-68
2022/11/16 02:12:51;;;;;;;19.50;12.35;;;;;;;7.54;100.00;95493.16;5043835;28;20048;-67
2022/11/16 02:15:31;;;;;;;19.23;12.38;;;;;;;7.48;100.00;95508.28;5045172;28;20025;-71
2022/11/16 02:18:05;;;;;;;22.10;13.57;;;;;;;7.41;100.00;95502.78;5053347;28;20191;-68
2022/11/16 02:20:54;;;;;;;20.98;14.98;;;;;;;7.39;100.00;95511.31;5025377;28;20045;-66
2022/11/16 02:23:50;;;;;;;22.08;15.73;;;;;;;7.43;100.00;95514.06;5035094;28;20039;-67
2022/11/16 02:26:45;;;;;;;22.92;15.27;;;;;;;7.42;100.00;95524.19;5027254;28;20490;-67
2022/11/16 02:29:22;;;;;;;23.92;16.27;;;;;;;7.46;100.00;95525.00;5019964;28;20431;-68
2022/11/16 02:32:11;;;;;;;28.85;17.77;;;;;;;7.45;100.00;95522.66;5043426;28;20045;-68
2022/11/16 02:34:41;;;;;;;34.00;19.30;;;;;;;7.49;100.00;95523.47;5042669;28;20128;-69
2022/11/16 02:37:13;;;;;;;33.70;20.38;;;;;;;7.62;100.00;95521.25;5036619;28;20041;-70
2022/11/16 02:39:42;;;;;;;35.42;21.60;;;;;;;7.60;100.00;95516.19;5025561;28;20064;-67
2022/11/16 02:42:13;;;;;;;33.03;20.63;;;;;;;7.64;100.00;95519.72;5037899;28;20045;-68
2022/11/16 02:44:43;;;;;;;40.72;21.95;;;;;;;7.61;100.00;95520.47;5042371;28;20069;-69
2022/11/16 02:47:16;;;;;;;33.60;20.75;;;;;;;7.71;100.00;95519.00;5037257;28;20405;-68
2022/11/16 02:49:47;;;;;;;36.50;21.20;;;;;;;7.68;100.00;95517.03;5043267;28;20482;-68
2022/11/16 02:52:14;;;;;;;37.65;22.02;;;;;;;7.80;100.00;95514.00;5037228;28;20094;-67
2022/11/16 02:54:40;;;;;;;34.40;19.05;;;;;;;7.89;100.00;95515.66;5023751;28;20591;-68
2022/11/16 02:57:05;;;;;;;30.85;19.52;;;;;;;7.91;100.00;95516.03;5037079;28;20071;-68
2022/11/16 02:59:51;;;;;;;29.70;18.95;;;;;;;7.88;100.00;95514.06;5008674;28;20052;-68
2022/11/16 03:02:36;;;;;;;26.73;17.55;;;;;;;7.84;100.00;95511.31;5037950;28;20136;-68
2022/11/16 03:05:06;;;;;;;30.63;17.95;;;;;;;7.93;100.00;95511.00;5042343;28;20064;-68
2022/11/16 03:07:40;;;;;;;31.27;18.40;;;;;;;8.00;100.00;95514.53;5041582;28;20411;-68
2022/11/16 03:10:06;;;;;;;33.28;18.02;;;;;;;8.02;100.00;95512.22;5037226;28;20072;-68
2022/11/16 03:12:34;;;;;;;30.15;19.02;;;;;;;7.95;100.00;95506.72;5042101;28;20040;-67
2022/11/16 03:15:08;;;;;;;32.70;17.75;;;;;;;7.94;100.00;95502.44;5042618;28;20051;-68
2022/11/16 03:17:43;;;;;;;26.33;16.85;;;;;;;7.95;100.00;95505.94;5023910;28;20395;-68
2022/11/16 03:20:11;;;;;;;25.45;17.73;;;;;;;8.06;100.00;95500.56;5016041;28;20073;-68
2022/11/16 03:22:53;;;;;;;31.45;16.90;;;;;;;8.03;100.00;95497.44;5041430;28;20048;-67
2022/11/16 03:25:21;;;;;;;25.52;16.15;;;;;;;8.01;100.00;95499.75;5039164;28;20041;-67
2022/11/16 03:28:33;;;;;;;27.83;17.67;;;;;;;8.05;100.00;95499.78;5041651;28;20693;-67
2022/11/16 03:31:07;;;;;;;30.27;18.52;;;;;;;8.09;100.00;95505.25;5000696;28;20045;-68
2022/11/16 03:33:38;;;;;;;29.30;17.88;;;;;;;8.18;100.00;95502.97;5042407;28;20124;-67
2022/11/16 03:36:06;;;;;;;29.98;17.77;;;;;;;8.00;100.00;95503.63;5038550;28;20044;-67
2022/11/16 03:38:34;;;;;;;28.17;18.67;;;;;;;7.89;100.00;95500.06;5040199;28;20029;-70
2022/11/16 03:41:02;;;;;;;31.90;18.42;;;;;;;7.71;100.00;95496.41;5061455;28;20174;-68
2022/11/16 03:43:29;;;;;;;33.47;20.85;;;;;;;7.57;100.00;95497.84;5056000;28;20052;-69
2022/11/16 03:45:56;;;;;;;36.47;21.08;;;;;;;7.50;100.00;95508.69;5041048;28;20476;-68
2022/11/16 03:48:21;;;;;;;32.70;20.23;;;;;;;7.49;100.00;95511.78;5036679;28;20037;-68
2022/11/16 03:50:47;;;;;;;32.28;19.55;;;;;;;7.55;100.00;95505.63;5043477;28;20528;-67
2022/11/16 03:53:12;;;;;;;34.10;21.35;;;;;;;7.69;100.00;95498.72;5037404;28;20370;-66
2022/11/16 03:55:38;;;;;;;30.40;19.92;;;;;;;7.75;100.00;95497.22;5053086;28;20067;-67
2022/11/16 03:58:04;;;;;;;37.05;20.45;;;;;;;7.78;100.00;95489.06;5047724;28;20481;-68
2022/11/16 04:00:29;;;;;;;29.98;19.35;;;;;;;7.73;100.00;95502.28;5047364;28;20045;-67
2022/11/16 04:02:55;;;;;;;36.22;20.55;;;;;;;7.62;100.00;95497.50;5040929;28;20145;-67
2022/11/16 04:24:40;;;;;;;41.80;25.08;;;;;;;7.34;100.00;95521.78;5039059;28;20052;-68
2022/11/16 04:29:57;;;;;;;49.53;25.67;;;;;;;7.41;100.00;95509.00;5053466;28;20073;-67
2022/11/16 04:38:11;;;;;;;44.42;24.63;;;;;;;7.52;100.00;95508.31;4993414;28;20042;-66
2022/11/16 04:40:37;;;;;;;39.00;21.95;;;;;;;7.62;100.00;95507.63;4999128;28;20088;-70
2022/11/16 04:43:03;;;;;;;44.42;27.67;;;;;;;7.68;100.00;95499.88;5004845;28;20044;-68
2022/11/16 04:48:14;;;;;;;33.45;21.90;;;;;;;7.65;100.00;95494.03;5015792;28;20081;-65
2022/11/16 04:50:40;;;;;;;34.08;20.75;;;;;;;7.66;100.00;95492.88;5035770;28;20053;-65
2022/11/16 04:53:07;;;;;;;35.83;21.75;;;;;;;7.70;100.00;95498.34;5034919;28;20049;-66
2022/11/16 04:55:32;;;;;;;35.80;20.58;;;;;;;7.73;100.00;95494.88;5040929;28;20041;-67
2022/11/16 04:57:59;;;;;;;34.72;21.67;;;;;;;7.73;100.00;95497.59;5040614;28;20040;-66
2022/11/16 05:00:24;;;;;;;35.70;21.15;;;;;;;7.68;100.00;95491.72;5034566;28;20115;-67
2022/11/16 05:02:50;;;;;;;35.10;21.23;;;;;;;7.65;100.00;95499.50;5045159;28;20049;-68
2022/11/16 05:05:15;;;;;;;34.00;22.60;;;;;;;7.64;100.00;95497.13;5048209;28;20148;-67
2022/11/16 05:07:41;;;;;;;33.60;23.23;;;;;;;7.43;100.00;95495.78;5054473;28;20600;-67
2022/11/16 05:10:07;;;;;;;41.45;25.85;;;;;;;7.31;100.00;95495.28;5018493;28;20045;-66
2022/11/16 05:12:33;;;;;;;40.47;24.27;;;;;;;7.24;100.00;95488.59;5039508;28;20049;-66
2022/11/16 05:14:58;;;;;;;41.63;25.17;;;;;;;7.20;100.00;95484.28;5022229;28;20037;-67
2022/11/16 05:17:25;;;;;;;39.30;24.95;;;;;;;7.20;100.00;95471.47;5035118;28;20106;-67
2022/11/16 05:22:35;;;;;;;49.88;28.05;;;;;;;7.05;100.00;95477.91;5040254;28;20394;-68
2022/11/16 05:25:01;;;;;;;48.13;27.08;;;;;;;7.02;100.00;95475.91;5040855;28;20040;-67
2022/11/16 05:27:28;;;;;;;45.80;24.75;;;;;;;7.02;100.00;95484.09;5036389;28;20037;-69
2022/11/16 05:29:54;;;;;;;44.08;24.50;;;;;;;7.08;100.00;95477.94;5037838;28;20040;-69
2022/11/16 05:32:21;;;;;;;45.97;26.27;;;;;;;7.14;100.00;95469.44;5035556;28;20055;-69
2022/11/16 05:34:46;;;;;;;44.55;25.70;;;;;;;7.23;100.00;95470.69;5053448;28;20071;-68
2022/11/16 05:37:13;;;;;;;48.40;26.92;;;;;;;7.25;100.00;95471.09;5046155;28;20033;-68
2022/11/16 05:39:39;;;;;;;40.97;25.08;;;;;;;7.24;100.00;95472.28;5026387;28;20102;-68
2022/11/16 05:42:05;;;;;;;40.28;24.08;;;;;;;7.21;100.00;95466.78;5037051;28;20044;-67
2022/11/16 05:44:30;;;;;;;41.97;25.33;;;;;;;7.23;100.00;95461.75;5044705;28;20125;-67
2022/11/16 05:46:56;;;;;;;43.40;23.73;;;;;;;7.19;100.00;95467.16;5043739;28;20149;-66
2022/11/16 05:49:22;;;;;;;40.35;23.90;;;;;;;7.10;100.00;95465.91;5022749;28;20174;-66
2022/11/16 05:51:48;;;;;;;112.00;24.75;;;;;;;6.88;100.00;95466.47;5054512;28;20465;-67
2022/11/16 05:54:17;;;;;;;51.88;22.88;;;;;;;6.78;100.00;95479.94;5020613;28;20087;-66
2022/11/16 05:56:43;;;;;;;34.88;20.38;;;;;;;6.77;100.00;95468.28;5042814;28;20044;-66
2022/11/16 05:59:12;;;;;;;31.05;19.52;;;;;;;6.84;100.00;95471.09;5038998;28;20417;-66
2022/11/16 06:01:37;;;;;;;34.03;20.85;;;;;;;6.88;100.00;95471.13;5025764;28;20043;-69
2022/11/16 06:04:03;;;;;;;36.13;22.75;;;;;;;6.91;100.00;95475.81;5020463;28;20048;-66
2022/11/16 06:06:29;;;;;;;31.23;19.88;;;;;;;6.93;100.00;95473.50;5023295;28;20187;-68
2022/11/16 06:08:54;;;;;;;31.25;20.20;;;;;;;6.97;100.00;95470.81;5024362;28;20103;-68
2022/11/16 06:11:20;;;;;;;30.42;20.23;;;;;;;7.00;100.00;95483.69;5037992;28;20077;-69
2022/11/16 06:13:45;;;;;;;31.25;19.95;;;;;;;7.01;100.00;95483.31;5043908;28;20550;-68
2022/11/16 06:16:11;;;;;;;41.22;21.75;;;;;;;7.06;100.00;95483.00;5049233;28;20045;-69
2022/11/16 06:18:38;;;;;;;30.65;20.25;;;;;;;7.13;100.00;95492.38;5062352;28;20048;-69
2022/11/16 06:21:04;;;;;;;36.95;22.13;;;;;;;7.14;100.00;95493.94;5057757;28;20061;-66
2022/11/16 06:23:30;;;;;;;35.85;20.55;;;;;;;7.12;100.00;95488.88;5047422;28;20040;-68
2022/11/16 06:25:55;;;;;;;30.33;20.45;;;;;;;7.12;100.00;95490.81;5042728;28;20113;-67
2022/11/16 06:28:21;;;;;;;30.40;18.98;;;;;;;7.13;100.00;95490.44;5037070;28;20949;-67
2022/11/16 06:30:47;;;;;;;29.38;18.42;;;;;;;7.18;100.00;95500.97;5042638;28;20490;-66
2022/11/16 06:33:13;;;;;;;26.92;17.52;;;;;;;7.19;100.00;95499.06;5031198;28;20036;-67
2022/11/16 06:35:38;;;;;;;32.03;19.75;;;;;;;7.17;100.00;95510.31;5026325;28;20044;-68
2022/11/16 06:38:05;;;;;;;28.13;18.38;;;;;;;7.19;100.00;95513.44;5046758;28;20150;-68
2022/11/16 06:40:31;;;;;;;28.75;18.65;;;;;;;7.24;100.00;95507.66;5044178;28;20049;-68
2022/11/16 06:42:56;;;;;;;29.58;19.13;;;;;;;7.26;100.00;95504.59;5043202;28;20041;-68
2022/11/16 06:45:22;;;;;;;33.10;21.23;;;;;;;7.12;100.00;95499.75;5018645;28;20263;-69
2022/11/16 06:47:48;;;;;;;32.80;22.00;;;;;;;7.06;100.00;95504.75;5042888;28;20406;-66
2022/11/16 06:50:17;;;;;;;38.13;23.02;;;;;;;7.08;100.00;95512.56;5037638;28;20041;-68
2022/11/16 06:52:48;;;;;;;37.50;22.25;;;;;;;6.96;100.00;95508.16;5042257;28;20128;-68
2022/11/16 06:55:15;;;;;;;33.53;22.65;;;;;;;6.95;100.00;95511.25;5027683;28;20052;-68
2022/11/16 06:57:40;;;;;;;37.03;22.55;;;;;;;6.92;100.00;95514.72;5042403;28;20041;-68
2022/11/16 07:00:09;;;;;;;35.42;21.90;;;;;;;6.89;100.00;95518.94;5033050;28;20060;-69
2022/11/16 07:02:38;;;;;;;33.20;20.27;;;;;;;6.88;100.00;95522.84;5025555;28;20041;-69
2022/11/16 07:05:05;;;;;;;28.80;19.17;;;;;;;7.03;100.00;95529.22;5039817;28;20047;-67
2022/11/16 07:07:30;;;;;;;32.08;21.60;;;;;;;7.13;100.00;95517.69;5038224;28;20398;-68
2022/11/16 07:09:56;;;;;;;32.78;22.00;;;;;;;7.28;100.00;95524.06;5042901;28;20037;-70
2022/11/16 07:12:21;;;;;;;36.75;23.13;;;;;;;7.61;100.00;95531.34;5038207;28;22942;-68
2022/11/16 07:14:46;;;;;;;43.53;25.88;;;;;;;7.65;100.00;95534.13;5040770;28;20033;-68
2022/11/16 07:17:12;;;;;;;40.55;26.73;;;;;;;7.76;100.00;95536.94;5036052;28;20097;-68
2022/11/16 07:19:38;;;;;;;37.47;24.30;;;;;;;7.76;100.00;95531.47;5041993;28;20482;-68
2022/11/16 07:22:05;;;;;;;42.92;25.65;;;;;;;7.85;100.00;95527.28;5035524;28;20049;-67
2022/11/16 07:24:31;;;;;;;36.47;23.33;;;;;;;7.93;100.00;95532.81;5042433;28;20036;-69
2022/11/16 07:26:56;;;;;;;43.65;27.83;;;;;;;7.97;100.00;95523.47;5041889;28;20052;-69
2022/11/16 07:29:21;;;;;;;33.72;22.92;;;;;;;8.06;100.00;95533.28;5019307;28;20505;-68
2022/11/16 07:31:47;;;;;;;38.55;23.48;;;;;;;8.29;100.00;95541.25;5040927;28;20107;-68
2022/11/16 07:34:12;;;;;;;36.85;21.98;;;;;;;8.31;100.00;95528.00;5037239;28;20394;-68
2022/11/16 07:36:38;;;;;;;35.58;21.45;;;;;;;8.19;100.00;95540.00;5023340;28;20382;-68
2022/11/16 07:39:05;;;;;;;35.85;21.70;;;;;;;8.19;100.00;95540.00;5038868;28;20044;-67
2022/11/16 07:41:31;;;;;;;66.18;26.08;;;;;;;8.20;100.00;95550.53;5041965;28;20037;-69
2022/11/16 07:43:57;;;;;;;46.60;22.52;;;;;;;8.23;100.00;95546.28;5042736;28;20691;-69
2022/11/16 07:46:23;;;;;;;37.35;21.80;;;;;;;8.24;100.00;95550.56;5037073;28;20049;-69
2022/11/16 07:48:48;;;;;;;49.42;22.60;;;;;;;8.30;100.00;95549.06;5024862;28;20494;-71
2022/11/16 07:51:16;;;;;;;39.83;21.88;;;;;;;8.37;100.00;95551.03;5017815;28;20064;-68
2022/11/16 07:53:42;;;;;;;28.40;19.17;;;;;;;8.46;100.00;95556.19;5042255;28;20052;-68
2022/11/16 07:56:08;;;;;;;31.98;17.98;;;;;;;8.46;100.00;95559.69;5035396;28;20040;-68
2022/11/16 07:58:35;;;;;;;31.00;20.08;;;;;;;8.52;100.00;95557.41;5022794;28;20048;-68
2022/11/16 08:01:07;;;;;;;33.28;19.40;;;;;;;8.59;100.00;95560.94;5041725;28;20147;-68
2022/11/16 08:03:34;;;;;;;29.65;19.45;;;;;;;8.79;100.00;95564.16;5041786;28;20087;-69
2022/11/16 08:06:02;;;;;;;28.60;19.58;;;;;;;9.16;100.00;95574.09;5040590;28;20506;-68
2022/11/16 08:08:28;;;;;;;34.25;18.98;;;;;;;9.62;100.00;95563.66;5038415;28;20041;-68
2022/11/16 08:11:04;;;;;;;28.13;17.77;;;;;;;10.12;100.00;95561.75;5024956;28;20041;-68
2022/11/16 08:13:33;;;;;;;25.00;16.23;;;;;;;10.79;100.00;95555.81;5042090;28;20033;-69
2022/11/16 08:16:06;;;;;;;24.23;15.32;;;;;;;11.56;100.00;95563.31;5023659;28;20637;-69
2022/11/16 08:18:32;;;;;;;21.88;14.35;;;;;;;11.87;100.00;95569.78;5041667;28;20048;-68
2022/11/16 08:20:58;;;;;;;21.73;13.57;;;;;;;12.52;100.00;95575.56;5042591;28;20051;-70
2022/11/16 08:23:24;;;;;;;23.45;14.20;;;;;;;12.95;100.00;95572.38;5036058;28;20041;-69
2022/11/16 08:25:50;;;;;;;25.00;14.68;;;;;;;13.23;100.00;95577.97;5040919;28;20052;-68
2022/11/16 08:28:15;;;;;;;18.52;9.23;;;;;;;12.65;100.00;95575.06;5030593;28;20041;-69
2022/11/16 08:30:41;;;;;;;12.80;6.80;;;;;;;12.33;100.00;95579.63;5041230;28;20045;-68
2022/11/16 08:33:08;;;;;;;16.23;7.60;;;;;;;11.82;100.00;95586.66;5036166;28;20119;-69
2022/11/16 08:35:34;;;;;;;9.70;6.60;;;;;;;11.66;100.00;95589.88;5040665;28;20133;-69
2022/11/16 08:38:00;;;;;;;11.40;6.28;;;;;;;11.50;100.00;95590.38;5041665;28;20132;-67
2022/11/16 08:40:26;;;;;;;10.52;6.25;;;;;;;11.22;100.00;95591.28;5035830;28;20049;-67
2022/11/16 08:42:55;;;;;;;8.85;6.53;;;;;;;10.95;100.00;95588.22;5041969;28;20044;-67
2022/11/16 08:45:24;;;;;;;12.73;7.35;;;;;;;10.67;100.00;95587.13;5035003;28;20073;-68
2022/11/16 08:47:51;;;;;;;12.93;8.15;;;;;;;10.87;100.00;95582.00;5039414;28;20537;-68
2022/11/16 08:50:17;;;;;;;13.38;7.55;;;;;;;10.83;100.00;95586.72;5035446;28;20445;-67
2022/11/16 08:52:42;;;;;;;12.00;7.28;;;;;;;11.04;100.00;95575.69;5040832;28;20044;-67
2022/11/16 08:55:09;;;;;;;15.80;6.30;;;;;;;11.14;100.00;95585.03;5036502;28;20045;-70
2022/11/16 08:57:34;;;;;;;10.32;5.50;;;;;;;11.24;100.00;95592.44;5041638;28;20048;-68
2022/11/16 08:59:59;;;;;;;8.75;5.40;;;;;;;11.25;100.00;95602.25;5041345;28;20417;-69
2022/11/16 09:02:25;;;;;;;10.95;6.60;;;;;;;11.66;100.00;95592.63;5035069;28;20033;-69
2022/11/16 09:04:51;;;;;;;9.95;5.30;;;;;;;12.29;100.00;95589.09;5022909;28;20449;-69
2022/11/16 09:07:17;;;;;;;11.65;6.47;;;;;;;13.33;100.00;95596.34;5036335;28;20077;-71
2022/11/16 09:09:42;;;;;;;6.70;4.22;;;;;;;13.64;100.00;95597.09;5041462;28;20072;-69
2022/11/16 09:12:08;;;;;;;6.25;4.00;;;;;;;13.79;100.00;95586.69;5036026;28;20132;-69
2022/11/16 09:14:33;;;;;;;6.95;4.20;;;;;;;13.90;100.00;95592.03;5040862;28;20052;-69
2022/11/16 09:16:59;;;;;;;6.85;4.10;;;;;;;13.14;100.00;95586.69;5039708;28;20037;-69
2022/11/16 09:19:24;;;;;;;11.75;4.00;;;;;;;13.65;100.00;95593.16;5015062;28;20083;-70
2022/11/16 09:21:49;;;;;;;5.25;3.45;;;;;;;13.13;100.00;95596.16;5054325;28;20112;-69
2022/11/16 09:24:15;;;;;;;4.13;3.22;;;;;;;14.02;100.00;95599.72;5044942;28;20143;-68
2022/11/16 09:26:40;;;;;;;5.70;2.97;;;;;;;14.47;100.00;95596.66;5042345;28;20040;-69
2022/11/16 09:29:06;;;;;;;7.43;3.75;;;;;;;15.36;92.81;95601.78;5035240;28;20041;-66
2022/11/16 09:31:33;;;;;;;7.85;3.67;;;;;;;16.09;84.16;95612.09;5040154;28;20037;-69
2022/11/16 09:33:59;;;;;;;6.10;3.67;;;;;;;15.13;91.84;95599.88;5038412;28;20049;-68
2022/11/16 09:36:26;;;;;;;5.60;3.00;;;;;;;15.03;93.83;95609.88;5034011;28;20052;-68
2022/11/16 09:38:53;;;;;;;5.43;3.05;;;;;;;14.83;91.45;95607.09;5040230;28;20048;-67
2022/11/16 09:41:56;;;;;;;5.07;2.80;;;;;;;15.26;88.58;95608.28;5016343;28;20049;-68
2022/11/16 09:44:25;;;;;;;4.40;2.30;;;;;;;15.58;83.24;95615.16;5034574;28;20060;-68
2022/11/16 09:46:57;;;;;;;4.30;2.40;;;;;;;15.07;86.22;95604.28;5003178;28;20041;-68
2022/11/16 09:49:38;;;;;;;3.67;2.13;;;;;;;14.85;88.85;95596.41;5019961;28;20052;-68
2022/11/16 09:52:41;;;;;;;4.78;1.73;;;;;;;13.92;92.67;95595.16;5042769;28;20045;-67
2022/11/16 09:55:49;;;;;;;4.10;2.20;;;;;;;13.22;98.32;95598.38;5035205;28;20490;-69
2022/11/16 09:58:37;;;;;;;4.53;2.13;;;;;;;13.05;100.00;95600.16;5031853;28;20123;-68
2022/11/16 10:01:14;;;;;;;4.70;1.90;;;;;;;12.41;100.00;95603.13;5035048;28;20052;-67
2022/11/16 10:03:45;;;;;;;5.88;1.88;;;;;;;12.45;100.00;95602.31;5038393;28;20048;-67
2022/11/16 10:06:26;;;;;;;4.65;1.73;;;;;;;12.13;100.00;95604.09;5044915;28;20091;-67
2022/11/16 10:08:55;;;;;;;8.18;1.92;;;;;;;12.38;100.00;95594.91;5038781;28;20041;-68
2022/11/16 10:11:42;;;;;;;9.70;2.30;;;;;;;12.08;99.82;95603.75;5033482;28;20041;-68
2022/11/16 10:14:13;;;;;;;13.02;1.98;;;;;;;12.05;100.00;95603.38;5031271;28;20288;-68
2022/11/16 10:16:51;;;;;;;6.32;1.80;;;;;;;12.28;100.00;95593.81;5029810;28;20061;-68
2022/11/16 10:19:28;;;;;;;3.72;1.70;;;;;;;12.35;100.00;95592.97;5034011;28;20438;-69
2022/11/16 10:22:00;;;;;;;5.90;1.88;;;;;;;12.54;100.00;95592.41;5042642;28;20044;-69
2022/11/16 10:24:34;;;;;;;5.90;1.52;;;;;;;12.75;97.20;95591.44;5038193;28;20048;-68
2022/11/16 10:27:04;;;;;;;4.88;1.33;;;;;;;13.24;93.07;95585.03;5036036;28;20041;-68
2022/11/16 10:29:49;;;;;;;5.05;1.30;;;;;;;13.69;87.26;95574.63;5039007;28;20044;-69
2022/11/16 10:32:28;;;;;;;7.30;1.55;;;;;;;13.93;86.97;95571.94;5000299;28;20398;-69
2022/11/16 10:34:54;;;;;;;7.07;1.77;;;;;;;13.99;86.50;95575.78;5005891;28;20048;-68
2022/11/16 10:37:21;;;;;;;15.63;2.55;;;;;;;13.82;86.48;95579.56;5021551;28;20811;-69
2022/11/16 10:39:49;;;;;;;8.68;1.83;;;;;;;12.93;90.62;95572.00;5042994;28;20098;-69
2022/11/16 10:42:21;;;;;;;31.77;4.47;;;;;;;12.93;92.82;95571.25;5018139;28;20037;-68
2022/11/16 10:44:55;;;;;;;6.13;1.77;;;;;;;13.00;94.07;95576.66;5041004;28;20033;-68
2022/11/16 10:47:26;;;;;;;4.72;1.67;;;;;;;13.11;94.42;95574.56;5036750;28;20234;-67
2022/11/16 10:49:59;;;;;;;6.70;1.77;;;;;;;13.26;92.78;95568.91;5042264;28;20045;-68
2022/11/16 10:52:24;;;;;;;8.07;1.60;;;;;;;13.23;92.29;95570.47;5020916;28;20632;-67
2022/11/16 10:54:50;;;;;;;2.53;1.48;;;;;;;13.38;90.60;95566.41;5045511;28;20640;-68
2022/11/16 10:57:16;;;;;;;3.13;1.20;;;;;;;12.97;93.31;95561.75;5038112;28;20040;-68
2022/11/16 10:59:46;;;;;;;28.98;3.15;;;;;;;13.09;90.72;95554.94;5043057;28;20060;-68
2022/11/16 11:02:23;;;;;;;5.75;1.30;;;;;;;13.35;88.58;95564.47;5037070;28;20036;-68
2022/11/16 11:05:04;;;;;;;10.13;1.70;;;;;;;13.25;90.28;95553.56;5043572;28;20547;-69
2022/11/16 11:07:39;;;;;;;8.55;1.73;;;;;;;13.49;89.33;95549.00;5038030;28;20049;-68
2022/11/16 11:10:33;;;;;;;16.05;3.45;;;;;;;13.84;86.95;95544.94;5037293;28;20407;-67
2022/11/16 11:13:03;;;;;;;4.82;2.10;;;;;;;13.69;86.11;95536.13;5041684;28;20152;-67
2022/11/16 11:15:29;;;;;;;7.35;1.60;;;;;;;13.79;85.47;95539.88;5040703;28;20072;-69
2022/11/16 11:18:19;;;;;;;4.90;1.30;;;;;;;13.30;87.15;95542.13;5042016;28;20152;-69
2022/11/16 11:20:49;;;;;;;10.88;2.03;;;;;;;12.95;91.18;95533.13;5039161;28;20140;-69
2022/11/16 11:23:21;;;;;;;4.63;1.23;;;;;;;12.55;94.43;95536.31;5018276;28;20366;-69
2022/11/16 11:25:54;;;;;;;5.40;1.50;;;;;;;12.29;93.82;95539.69;5039287;28;20040;-68
2022/11/16 11:28:22;;;;;;;4.15;1.35;;;;;;;12.39;93.65;95536.06;5037256;28;20044;-69
2022/11/16 11:31:21;;;;;;;5.60;1.60;;;;;;;12.37;93.49;95536.47;5041316;28;20128;-69
2022/11/16 11:33:53;;;;;;;4.60;1.40;;;;;;;12.73;90.42;95533.38;5041798;28;20037;-67
2022/11/16 11:36:25;;;;;;;10.32;2.65;;;;;;;12.93;90.99;95525.28;5034608;28;20091;-69
2022/11/16 11:39:19;;;;;;;48.53;4.65;;;;;;;13.36;87.15;95530.28;5042480;28;20033;-69
2022/11/16 11:42:00;;;;;;;6.55;1.30;;;;;;;12.81;86.93;95523.06;5033800;28;20505;-68
2022/11/16 11:44:49;;;;;;;5.53;1.65;;;;;;;13.28;84.93;95528.00;5038618;28;20068;-68
2022/11/16 11:47:29;;;;;;;11.03;1.67;;;;;;;13.20;84.87;95525.34;5019733;28;20049;-67
2022/11/16 11:50:09;;;;;;;3.90;1.20;;;;;;;13.23;84.64;95528.47;5042191;28;20059;-69
2022/11/16 11:52:45;;;;;;;8.25;1.50;;;;;;;13.50;85.00;95523.78;5040622;28;20058;-69
2022/11/16 11:55:16;;;;;;;11.70;1.50;;;;;;;13.89;80.55;95524.44;5036640;28;20506;-68
2022/11/16 11:57:46;;;;;;;3.38;1.20;;;;;;;13.74;80.79;95519.16;5040250;28;20574;-68
2022/11/16 12:00:13;;;;;;;5.95;1.63;;;;;;;14.31;77.00;95520.22;5018139;28;20033;-69
2022/11/16 12:02:56;;;;;;;3.97;1.08;;;;;;;14.91;71.94;95516.78;5040832;28;20501;-69
2022/11/16 12:05:58;;;;;;;21.45;2.47;;;;;;;15.43;69.87;95521.63;5034489;28;20103;-69
2022/11/16 12:08:51;;;;;;;3.00;1.30;;;;;;;15.44;67.93;95523.16;5016426;28;20490;-68